Terminal Aerodrome Forecast
Issued by NWS Cleveland, OH

Home | Current Version | Previous Version | Text Only | Print | Product List | Glossary Off
Versions: 1 2 3 4 5 6 7 8 9 10 11 12 13 14 15 16

108
FTUS41 KCLE 240540
TAFYNG
TAF
KYNG 240540Z 2406/2506 02006KT P6SM BKN008 OVC015
     FM240900 02008KT P6SM OVC015
     FM241300 02010KT P6SM BKN025
     FM241500 02008KT P6SM BKN035
     FM241700 02008KT P6SM SCT040
     FM242300 04004KT P6SM SKC=

USA.gov is the U.S. government's official web portal to all federal, state and local government web resources and services.